sensor_id;sensor_type;location;lat;lon;timestamp;temperature;humidity
42965;DHT22;28604;51.204;22.552;2022-09-20T00:00:45;9.20;93.20
42965;DHT22;28604;51.204;22.552;2022-09-20T00:03:25;9.20;93.20
42965;DHT22;28604;51.204;22.552;2022-09-20T00:05:52;9.20;93.10
42965;DHT22;28604;51.204;22.552;2022-09-20T00:08:18;9.20;93.30
42965;DHT22;28604;51.204;22.552;2022-09-20T00:10:43;9.30;93.10
42965;DHT22;28604;51.204;22.552;2022-09-20T00:13:12;9.30;93.00
42965;DHT22;28604;51.204;22.552;2022-09-20T00:15:42;9.40;92.90
42965;DHT22;28604;51.204;22.552;2022-09-20T00:18:09;9.40;93.00
42965;DHT22;28604;51.204;22.552;2022-09-20T00:20:43;9.40;92.90
42965;DHT22;28604;51.204;22.552;2022-09-20T00:23:08;9.40;93.30
42965;DHT22;28604;51.204;22.552;2022-09-20T00:25:34;9.50;93.00
42965;DHT22;28604;51.204;22.552;2022-09-20T00:28:01;9.50;92.60
42965;DHT22;28604;51.204;22.552;2022-09-20T00:30:27;9.50;92.90
42965;DHT22;28604;51.204;22.552;2022-09-20T00:32:53;9.50;93.10
42965;DHT22;28604;51.204;22.552;2022-09-20T00:35:19;9.50;93.10
42965;DHT22;28604;51.204;22.552;2022-09-20T00:37:45;9.50;93.20
42965;DHT22;28604;51.204;22.552;2022-09-20T00:40:14;9.50;92.90
42965;DHT22;28604;51.204;22.552;2022-09-20T00:42:41;9.60;93.10
42965;DHT22;28604;51.204;22.552;2022-09-20T00:45:24;9.60;92.90
42965;DHT22;28604;51.204;22.552;2022-09-20T00:47:58;9.60;92.90
42965;DHT22;28604;51.204;22.552;2022-09-20T00:50:36;9.60;92.80
42965;DHT22;28604;51.204;22.552;2022-09-20T00:53:10;9.70;92.80
42965;DHT22;28604;51.204;22.552;2022-09-20T00:55:41;9.60;92.70
42965;DHT22;28604;51.204;22.552;2022-09-20T00:58:08;9.70;92.90
42965;DHT22;28604;51.204;22.552;2022-09-20T01:00:34;9.70;92.90
42965;DHT22;28604;51.204;22.552;2022-09-20T01:03:05;9.70;93.10
42965;DHT22;28604;51.204;22.552;2022-09-20T01:05:33;9.70;93.10
42965;DHT22;28604;51.204;22.552;2022-09-20T01:08:00;9.70;93.00
42965;DHT22;28604;51.204;22.552;2022-09-20T01:10:26;9.70;93.00
42965;DHT22;28604;51.204;22.552;2022-09-20T01:12:55;9.80;92.90
42965;DHT22;28604;51.204;22.552;2022-09-20T01:15:22;9.80;93.30
42965;DHT22;28604;51.204;22.552;2022-09-20T01:17:53;9.80;93.00
42965;DHT22;28604;51.204;22.552;2022-09-20T01:20:30;9.80;93.10
42965;DHT22;28604;51.204;22.552;2022-09-20T01:28:14;9.80;93.00
42965;DHT22;28604;51.204;22.552;2022-09-20T01:31:07;9.90;92.70
42965;DHT22;28604;51.204;22.552;2022-09-20T01:34:05;9.90;92.90
42965;DHT22;28604;51.204;22.552;2022-09-20T01:36:43;9.90;92.60
42965;DHT22;28604;51.204;22.552;2022-09-20T01:39:24;9.90;92.90
42965;DHT22;28604;51.204;22.552;2022-09-20T01:41:58;9.90;92.90
42965;DHT22;28604;51.204;22.552;2022-09-20T01:49:55;9.90;92.60
42965;DHT22;28604;51.204;22.552;2022-09-20T02:12:07;10.00;93.30
42965;DHT22;28604;51.204;22.552;2022-09-20T02:14:57;10.00;93.30
42965;DHT22;28604;51.204;22.552;2022-09-20T02:25:52;10.00;93.80
42965;DHT22;28604;51.204;22.552;2022-09-20T02:37:14;10.00;94.00
42965;DHT22;28604;51.204;22.552;2022-09-20T02:45:13;10.10;93.60
42965;DHT22;28604;51.204;22.552;2022-09-20T02:47:42;10.00;94.00
42965;DHT22;28604;51.204;22.552;2022-09-20T02:56:11;10.10;93.60
42965;DHT22;28604;51.204;22.552;2022-09-20T03:10:36;10.10;93.80
42965;DHT22;28604;51.204;22.552;2022-09-20T03:16:11;10.10;93.90
42965;DHT22;28604;51.204;22.552;2022-09-20T03:38:08;10.20;94.20
42965;DHT22;28604;51.204;22.552;2022-09-20T04:00:23;10.30;93.80
42965;DHT22;28604;51.204;22.552;2022-09-20T04:02:59;10.30;94.00
42965;DHT22;28604;51.204;22.552;2022-09-20T04:13:37;10.40;93.90
42965;DHT22;28604;51.204;22.552;2022-09-20T04:21:59;10.30;93.90
42965;DHT22;28604;51.204;22.552;2022-09-20T04:25:17;10.30;94.10
42965;DHT22;28604;51.204;22.552;2022-09-20T04:27:55;10.40;94.30
42965;DHT22;28604;51.204;22.552;2022-09-20T04:30:30;10.40;94.20
42965;DHT22;28604;51.204;22.552;2022-09-20T04:33:02;10.40;94.00
42965;DHT22;28604;51.204;22.552;2022-09-20T04:39:04;10.40;93.90
42965;DHT22;28604;51.204;22.552;2022-09-20T04:53:20;10.40;94.10
42965;DHT22;28604;51.204;22.552;2022-09-20T04:58:54;10.50;94.20
42965;DHT22;28604;51.204;22.552;2022-09-20T05:16:04;10.50;94.40
42965;DHT22;28604;51.204;22.552;2022-09-20T05:41:24;10.80;94.40
42965;DHT22;28604;51.204;22.552;2022-09-20T05:49:16;11.00;94.20
42965;DHT22;28604;51.204;22.552;2022-09-20T06:03:28;11.10;94.20
42965;DHT22;28604;51.204;22.552;2022-09-20T06:14:47;11.30;94.10
42965;DHT22;28604;51.204;22.552;2022-09-20T06:17:24;11.40;94.20
42965;DHT22;28604;51.204;22.552;2022-09-20T06:27:36;11.50;93.80
42965;DHT22;28604;51.204;22.552;2022-09-20T06:30:06;11.50;93.90
42965;DHT22;28604;51.204;22.552;2022-09-20T06:32:58;11.50;93.90
42965;DHT22;28604;51.204;22.552;2022-09-20T06:36:05;11.60;93.90
42965;DHT22;28604;51.204;22.552;2022-09-20T06:38:37;11.60;93.80
42965;DHT22;28604;51.204;22.552;2022-09-20T06:41:30;11.60;93.80
42965;DHT22;28604;51.204;22.552;2022-09-20T06:44:03;11.60;93.90
42965;DHT22;28604;51.204;22.552;2022-09-20T06:46:33;11.70;93.60
42965;DHT22;28604;51.204;22.552;2022-09-20T06:49:01;11.70;93.60
42965;DHT22;28604;51.204;22.552;2022-09-20T06:51:28;11.70;93.60
42965;DHT22;28604;51.204;22.552;2022-09-20T06:53:58;11.80;93.60
42965;DHT22;28604;51.204;22.552;2022-09-20T06:56:28;11.80;93.60
42965;DHT22;28604;51.204;22.552;2022-09-20T06:58:55;11.80;93.60
42965;DHT22;28604;51.204;22.552;2022-09-20T07:01:22;11.80;93.60
42965;DHT22;28604;51.204;22.552;2022-09-20T07:03:48;11.90;93.50
42965;DHT22;28604;51.204;22.552;2022-09-20T07:06:14;11.90;93.50
42965;DHT22;28604;51.204;22.552;2022-09-20T07:08:45;11.90;93.60
42965;DHT22;28604;51.204;22.552;2022-09-20T07:11:14;12.00;93.70
42965;DHT22;28604;51.204;22.552;2022-09-20T07:13:42;11.90;93.60
42965;DHT22;28604;51.204;22.552;2022-09-20T07:16:12;12.00;93.50
42965;DHT22;28604;51.204;22.552;2022-09-20T07:18:39;12.20;93.60
42965;DHT22;28604;51.204;22.552;2022-09-20T07:21:11;12.20;93.60
42965;DHT22;28604;51.204;22.552;2022-09-20T07:23:37;12.30;93.40
42965;DHT22;28604;51.204;22.552;2022-09-20T07:26:04;12.40;93.50
42965;DHT22;28604;51.204;22.552;2022-09-20T07:28:32;12.50;93.60
42965;DHT22;28604;51.204;22.552;2022-09-20T07:30:59;12.60;93.40
42965;DHT22;28604;51.204;22.552;2022-09-20T07:33:25;12.60;93.30
42965;DHT22;28604;51.204;22.552;2022-09-20T07:35:52;12.70;93.20
42965;DHT22;28604;51.204;22.552;2022-09-20T07:38:20;12.70;93.00
42965;DHT22;28604;51.204;22.552;2022-09-20T07:40:57;12.80;92.70
42965;DHT22;28604;51.204;22.552;2022-09-20T07:43:26;12.90;92.60
42965;DHT22;28604;51.204;22.552;2022-09-20T07:45:53;12.90;92.40
42965;DHT22;28604;51.204;22.552;2022-09-20T07:48:28;13.00;92.30
42965;DHT22;28604;51.204;22.552;2022-09-20T07:50:57;13.00;92.50
42965;DHT22;28604;51.204;22.552;2022-09-20T07:53:24;13.00;92.50
42965;DHT22;28604;51.204;22.552;2022-09-20T07:58:34;13.10;92.10
42965;DHT22;28604;51.204;22.552;2022-09-20T08:01:09;13.20;92.30
42965;DHT22;28604;51.204;22.552;2022-09-20T08:03:36;13.20;92.20
42965;DHT22;28604;51.204;22.552;2022-09-20T08:06:08;13.20;92.20
42965;DHT22;28604;51.204;22.552;2022-09-20T08:08:36;13.30;92.20
42965;DHT22;28604;51.204;22.552;2022-09-20T08:11:09;13.30;91.80
42965;DHT22;28604;51.204;22.552;2022-09-20T08:13:42;13.30;92.00
42965;DHT22;28604;51.204;22.552;2022-09-20T08:16:10;13.40;91.90
42965;DHT22;28604;51.204;22.552;2022-09-20T08:18:44;13.40;91.80
42965;DHT22;28604;51.204;22.552;2022-09-20T08:21:11;13.40;91.80
42965;DHT22;28604;51.204;22.552;2022-09-20T08:23:42;13.40;91.80
42965;DHT22;28604;51.204;22.552;2022-09-20T08:26:10;13.40;91.70
42965;DHT22;28604;51.204;22.552;2022-09-20T08:28:40;13.50;91.60
42965;DHT22;28604;51.204;22.552;2022-09-20T08:31:13;13.50;91.50
42965;DHT22;28604;51.204;22.552;2022-09-20T08:33:39;13.60;91.70
42965;DHT22;28604;51.204;22.552;2022-09-20T08:36:08;13.70;91.40
42965;DHT22;28604;51.204;22.552;2022-09-20T08:38:36;13.70;91.50
42965;DHT22;28604;51.204;22.552;2022-09-20T08:41:30;13.80;91.10
42965;DHT22;28604;51.204;22.552;2022-09-20T08:44:10;13.80;91.20
42965;DHT22;28604;51.204;22.552;2022-09-20T08:46:41;14.00;91.10
42965;DHT22;28604;51.204;22.552;2022-09-20T08:49:26;14.10;90.80
42965;DHT22;28604;51.204;22.552;2022-09-20T08:51:53;14.10;90.60
42965;DHT22;28604;51.204;22.552;2022-09-20T08:54:25;14.10;90.60
42965;DHT22;28604;51.204;22.552;2022-09-20T08:56:52;14.20;90.60
42965;DHT22;28604;51.204;22.552;2022-09-20T08:59:20;14.20;90.60
42965;DHT22;28604;51.204;22.552;2022-09-20T09:01:49;14.20;90.20
42965;DHT22;28604;51.204;22.552;2022-09-20T09:04:18;14.30;90.30
42965;DHT22;28604;51.204;22.552;2022-09-20T09:06:45;14.30;90.40
42965;DHT22;28604;51.204;22.552;2022-09-20T09:09:22;14.40;90.10
42965;DHT22;28604;51.204;22.552;2022-09-20T09:11:52;14.50;90.10
42965;DHT22;28604;51.204;22.552;2022-09-20T09:14:27;14.40;89.80
42965;DHT22;28604;51.204;22.552;2022-09-20T09:17:20;14.40;89.80
42965;DHT22;28604;51.204;22.552;2022-09-20T09:22:28;14.50;89.70
42965;DHT22;28604;51.204;22.552;2022-09-20T09:27:52;14.60;89.00
42965;DHT22;28604;51.204;22.552;2022-09-20T09:30:27;14.50;88.80
42965;DHT22;28604;51.204;22.552;2022-09-20T09:35:42;14.60;89.10
42965;DHT22;28604;51.204;22.552;2022-09-20T09:38:30;14.50;88.60
42965;DHT22;28604;51.204;22.552;2022-09-20T09:40:59;14.50;89.40
42965;DHT22;28604;51.204;22.552;2022-09-20T09:43:31;14.40;89.00
42965;DHT22;28604;51.204;22.552;2022-09-20T09:48:44;14.30;87.80
42965;DHT22;28604;51.204;22.552;2022-09-20T09:51:19;14.30;87.50
42965;DHT22;28604;51.204;22.552;2022-09-20T09:53:48;14.30;88.00
42965;DHT22;28604;51.204;22.552;2022-09-20T10:09:23;14.50;87.60
42965;DHT22;28604;51.204;22.552;2022-09-20T10:17:28;14.80;86.70
42965;DHT22;28604;51.204;22.552;2022-09-20T10:31:29;14.80;85.00
42965;DHT22;28604;51.204;22.552;2022-09-20T10:36:56;14.80;85.60
42965;DHT22;28604;51.204;22.552;2022-09-20T10:39:35;14.90;85.80
42965;DHT22;28604;51.204;22.552;2022-09-20T10:42:39;14.90;85.10
42965;DHT22;28604;51.204;22.552;2022-09-20T10:45:29;14.90;84.70
42965;DHT22;28604;51.204;22.552;2022-09-20T10:48:07;15.00;84.90
42965;DHT22;28604;51.204;22.552;2022-09-20T10:53:19;14.90;84.00
42965;DHT22;28604;51.204;22.552;2022-09-20T10:56:05;14.90;84.30
42965;DHT22;28604;51.204;22.552;2022-09-20T11:01:17;14.90;84.40
42965;DHT22;28604;51.204;22.552;2022-09-20T11:03:59;14.90;84.00
42965;DHT22;28604;51.204;22.552;2022-09-20T11:06:54;15.00;85.00
42965;DHT22;28604;51.204;22.552;2022-09-20T11:09:26;15.10;84.30
42965;DHT22;28604;51.204;22.552;2022-09-20T11:12:19;15.20;84.10
42965;DHT22;28604;51.204;22.552;2022-09-20T11:15:03;15.20;84.50
42965;DHT22;28604;51.204;22.552;2022-09-20T11:17:41;15.30;84.00
42965;DHT22;28604;51.204;22.552;2022-09-20T11:23:20;15.50;84.60
42965;DHT22;28604;51.204;22.552;2022-09-20T11:25:57;15.60;83.80
42965;DHT22;28604;51.204;22.552;2022-09-20T11:28:41;15.60;82.00
42965;DHT22;28604;51.204;22.552;2022-09-20T11:31:25;15.80;84.00
42965;DHT22;28604;51.204;22.552;2022-09-20T11:37:00;16.00;81.50
42965;DHT22;28604;51.204;22.552;2022-09-20T11:39:44;16.10;82.10
42965;DHT22;28604;51.204;22.552;2022-09-20T11:42:18;16.10;81.30
42965;DHT22;28604;51.204;22.552;2022-09-20T11:44:46;16.30;82.60
42965;DHT22;28604;51.204;22.552;2022-09-20T11:55:14;17.20;82.00
42965;DHT22;28604;51.204;22.552;2022-09-20T11:57:42;17.40;79.50
42965;DHT22;28604;51.204;22.552;2022-09-20T12:00:09;17.50;78.40
42965;DHT22;28604;51.204;22.552;2022-09-20T12:02:47;17.50;77.90
42965;DHT22;28604;51.204;22.552;2022-09-20T12:05:40;17.60;77.70
42965;DHT22;28604;51.204;22.552;2022-09-20T12:08:29;17.40;77.30
42965;DHT22;28604;51.204;22.552;2022-09-20T12:11:09;17.40;77.20
42965;DHT22;28604;51.204;22.552;2022-09-20T12:13:40;17.40;77.50
42965;DHT22;28604;51.204;22.552;2022-09-20T12:16:52;17.40;77.10
42965;DHT22;28604;51.204;22.552;2022-09-20T12:24:34;17.40;77.70
42965;DHT22;28604;51.204;22.552;2022-09-20T12:27:22;17.30;76.40
42965;DHT22;28604;51.204;22.552;2022-09-20T12:30:19;17.30;76.50
42965;DHT22;28604;51.204;22.552;2022-09-20T12:32:53;17.30;78.30
42965;DHT22;28604;51.204;22.552;2022-09-20T12:43:24;17.40;76.60
42965;DHT22;28604;51.204;22.552;2022-09-20T12:45:53;17.40;76.20
42965;DHT22;28604;51.204;22.552;2022-09-20T12:48:19;17.40;75.80
42965;DHT22;28604;51.204;22.552;2022-09-20T12:51:03;17.40;76.60
42965;DHT22;28604;51.204;22.552;2022-09-20T12:54:04;17.40;75.20
42965;DHT22;28604;51.204;22.552;2022-09-20T12:56:35;17.40;78.80
42965;DHT22;28604;51.204;22.552;2022-09-20T12:59:03;17.40;76.10
42965;DHT22;28604;51.204;22.552;2022-09-20T13:01:35;17.40;76.50
42965;DHT22;28604;51.204;22.552;2022-09-20T13:07:33;17.50;76.50
42965;DHT22;28604;51.204;22.552;2022-09-20T13:10:13;17.60;76.10
42965;DHT22;28604;51.204;22.552;2022-09-20T13:12:42;17.60;78.00
42965;DHT22;28604;51.204;22.552;2022-09-20T13:15:16;17.50;76.50
42965;DHT22;28604;51.204;22.552;2022-09-20T13:17:45;17.60;76.80
42965;DHT22;28604;51.204;22.552;2022-09-20T13:20:31;17.50;76.10
42965;DHT22;28604;51.204;22.552;2022-09-20T13:23:02;17.50;77.10
42965;DHT22;28604;51.204;22.552;2022-09-20T13:25:30;17.50;77.10
42965;DHT22;28604;51.204;22.552;2022-09-20T13:28:08;17.40;76.10
42965;DHT22;28604;51.204;22.552;2022-09-20T13:30:35;17.30;75.20
42965;DHT22;28604;51.204;22.552;2022-09-20T13:33:22;17.30;75.90
42965;DHT22;28604;51.204;22.552;2022-09-20T13:35:51;17.30;77.40
42965;DHT22;28604;51.204;22.552;2022-09-20T13:38:19;17.20;75.70
42965;DHT22;28604;51.204;22.552;2022-09-20T13:40:50;17.10;75.90
42965;DHT22;28604;51.204;22.552;2022-09-20T13:43:36;17.20;76.20
42965;DHT22;28604;51.204;22.552;2022-09-20T13:48:33;17.20;76.60
42965;DHT22;28604;51.204;22.552;2022-09-20T13:51:00;17.10;79.20
42965;DHT22;28604;51.204;22.552;2022-09-20T13:53:28;16.90;76.60
42965;DHT22;28604;51.204;22.552;2022-09-20T13:55:57;17.00;77.70
42965;DHT22;28604;51.204;22.552;2022-09-20T13:58:30;16.90;77.30
42965;DHT22;28604;51.204;22.552;2022-09-20T14:01:02;16.90;78.00
42965;DHT22;28604;51.204;22.552;2022-09-20T14:03:32;16.90;77.80
42965;DHT22;28604;51.204;22.552;2022-09-20T14:06:04;16.80;78.50
42965;DHT22;28604;51.204;22.552;2022-09-20T14:08:50;16.60;79.00
42965;DHT22;28604;51.204;22.552;2022-09-20T14:13:50;16.40;80.20
42965;DHT22;28604;51.204;22.552;2022-09-20T14:16:17;16.40;81.00
42965;DHT22;28604;51.204;22.552;2022-09-20T14:18:45;16.40;80.30
42965;DHT22;28604;51.204;22.552;2022-09-20T14:21:23;16.30;80.60
42965;DHT22;28604;51.204;22.552;2022-09-20T14:26:40;16.20;80.50
42965;DHT22;28604;51.204;22.552;2022-09-20T14:31:57;16.10;80.90
42965;DHT22;28604;51.204;22.552;2022-09-20T14:34:24;16.10;80.80
42965;DHT22;28604;51.204;22.552;2022-09-20T14:37:02;16.10;81.40
42965;DHT22;28604;51.204;22.552;2022-09-20T14:39:30;16.20;82.10
42965;DHT22;28604;51.204;22.552;2022-09-20T14:41:57;16.20;81.60
42965;DHT22;28604;51.204;22.552;2022-09-20T14:44:30;16.20;81.00
42965;DHT22;28604;51.204;22.552;2022-09-20T14:46:57;16.30;81.30
42965;DHT22;28604;51.204;22.552;2022-09-20T14:51:53;16.50;81.40
42965;DHT22;28604;51.204;22.552;2022-09-20T14:54:39;16.40;80.50
42965;DHT22;28604;51.204;22.552;2022-09-20T14:57:08;16.50;80.50
42965;DHT22;28604;51.204;22.552;2022-09-20T14:59:36;16.50;80.00
42965;DHT22;28604;51.204;22.552;2022-09-20T15:02:10;16.50;79.70
42965;DHT22;28604;51.204;22.552;2022-09-20T15:04:39;16.40;79.40
42965;DHT22;28604;51.204;22.552;2022-09-20T15:07:09;16.40;79.90
42965;DHT22;28604;51.204;22.552;2022-09-20T15:09:38;16.30;78.90
42965;DHT22;28604;51.204;22.552;2022-09-20T15:12:06;16.30;78.60
42965;DHT22;28604;51.204;22.552;2022-09-20T15:14:35;16.20;78.20
42965;DHT22;28604;51.204;22.552;2022-09-20T15:17:01;16.20;78.30
42965;DHT22;28604;51.204;22.552;2022-09-20T15:19:27;16.10;78.00
42965;DHT22;28604;51.204;22.552;2022-09-20T15:21:55;16.00;77.60
42965;DHT22;28604;51.204;22.552;2022-09-20T15:24:21;15.90;77.20
42965;DHT22;28604;51.204;22.552;2022-09-20T15:26:48;15.90;77.70
42965;DHT22;28604;51.204;22.552;2022-09-20T15:29:16;15.80;77.40
42965;DHT22;28604;51.204;22.552;2022-09-20T15:31:44;15.80;78.20
42965;DHT22;28604;51.204;22.552;2022-09-20T15:34:11;15.80;78.20
42965;DHT22;28604;51.204;22.552;2022-09-20T15:36:39;15.70;77.60
42965;DHT22;28604;51.204;22.552;2022-09-20T15:39:05;15.70;77.80
42965;DHT22;28604;51.204;22.552;2022-09-20T15:41:31;15.60;77.90
42965;DHT22;28604;51.204;22.552;2022-09-20T15:43:58;15.60;77.80
42965;DHT22;28604;51.204;22.552;2022-09-20T15:46:25;15.60;78.20
42965;DHT22;28604;51.204;22.552;2022-09-20T15:48:54;15.50;78.50
42965;DHT22;28604;51.204;22.552;2022-09-20T15:51:25;15.50;78.50
42965;DHT22;28604;51.204;22.552;2022-09-20T15:53:58;15.40;78.40
42965;DHT22;28604;51.204;22.552;2022-09-20T15:56:30;15.40;78.50
42965;DHT22;28604;51.204;22.552;2022-09-20T15:58:59;15.40;78.80
42965;DHT22;28604;51.204;22.552;2022-09-20T16:01:27;15.30;78.80
42965;DHT22;28604;51.204;22.552;2022-09-20T16:03:54;15.30;78.90
42965;DHT22;28604;51.204;22.552;2022-09-20T16:06:22;15.20;79.00
42965;DHT22;28604;51.204;22.552;2022-09-20T16:08:48;15.10;79.20
42965;DHT22;28604;51.204;22.552;2022-09-20T16:11:18;15.10;79.30
42965;DHT22;28604;51.204;22.552;2022-09-20T16:13:50;15.10;79.30
42965;DHT22;28604;51.204;22.552;2022-09-20T16:16:17;15.00;79.30
42965;DHT22;28604;51.204;22.552;2022-09-20T16:18:43;15.00;79.40
42965;DHT22;28604;51.204;22.552;2022-09-20T16:21:27;15.00;79.60
42965;DHT22;28604;51.204;22.552;2022-09-20T16:23:55;14.90;79.70
42965;DHT22;28604;51.204;22.552;2022-09-20T16:26:23;14.90;80.00
42965;DHT22;28604;51.204;22.552;2022-09-20T16:28:50;14.80;80.10
42965;DHT22;28604;51.204;22.552;2022-09-20T16:31:44;14.80;80.40
42965;DHT22;28604;51.204;22.552;2022-09-20T16:36:49;14.70;80.80
42965;DHT22;28604;51.204;22.552;2022-09-20T16:39:17;14.70;80.90
42965;DHT22;28604;51.204;22.552;2022-09-20T16:41:47;14.60;81.10
42965;DHT22;28604;51.204;22.552;2022-09-20T16:44:14;14.60;81.20
42965;DHT22;28604;51.204;22.552;2022-09-20T16:46:41;14.50;81.20
42965;DHT22;28604;51.204;22.552;2022-09-20T16:49:08;14.50;81.40
42965;DHT22;28604;51.204;22.552;2022-09-20T16:51:38;14.40;81.40
42965;DHT22;28604;51.204;22.552;2022-09-20T16:54:10;14.40;81.60
42965;DHT22;28604;51.204;22.552;2022-09-20T16:56:42;14.30;81.60
42965;DHT22;28604;51.204;22.552;2022-09-20T16:59:09;14.30;81.70
42965;DHT22;28604;51.204;22.552;2022-09-20T17:01:36;14.30;81.90
42965;DHT22;28604;51.204;22.552;2022-09-20T17:04:03;14.20;81.90
42965;DHT22;28604;51.204;22.552;2022-09-20T17:06:31;14.20;81.80
42965;DHT22;28604;51.204;22.552;2022-09-20T17:08:59;14.20;82.30
42965;DHT22;28604;51.204;22.552;2022-09-20T17:11:28;14.10;82.20
42965;DHT22;28604;51.204;22.552;2022-09-20T17:13:55;14.10;82.40
42965;DHT22;28604;51.204;22.552;2022-09-20T17:16:24;14.00;82.40
42965;DHT22;28604;51.204;22.552;2022-09-20T17:19:02;14.00;82.30
42965;DHT22;28604;51.204;22.552;2022-09-20T17:21:30;14.00;82.20
42965;DHT22;28604;51.204;22.552;2022-09-20T17:23:58;13.90;82.40
42965;DHT22;28604;51.204;22.552;2022-09-20T17:26:32;13.90;82.60
42965;DHT22;28604;51.204;22.552;2022-09-20T17:29:00;13.90;82.40
42965;DHT22;28604;51.204;22.552;2022-09-20T17:31:29;13.90;82.30
42965;DHT22;28604;51.204;22.552;2022-09-20T17:33:57;13.80;82.30
42965;DHT22;28604;51.204;22.552;2022-09-20T17:36:27;13.80;82.40
42965;DHT22;28604;51.204;22.552;2022-09-20T17:38:55;13.80;82.70
42965;DHT22;28604;51.204;22.552;2022-09-20T17:41:22;13.70;82.20
42965;DHT22;28604;51.204;22.552;2022-09-20T17:43:54;13.70;82.50
42965;DHT22;28604;51.204;22.552;2022-09-20T17:46:29;13.70;82.50
42965;DHT22;28604;51.204;22.552;2022-09-20T17:48:58;13.70;82.60
42965;DHT22;28604;51.204;22.552;2022-09-20T17:53:53;13.60;83.50
42965;DHT22;28604;51.204;22.552;2022-09-20T17:56:25;13.50;83.80
42965;DHT22;28604;51.204;22.552;2022-09-20T17:59:03;13.50;83.80
42965;DHT22;28604;51.204;22.552;2022-09-20T18:01:31;13.50;84.00
42965;DHT22;28604;51.204;22.552;2022-09-20T18:03:59;13.40;84.00
42965;DHT22;28604;51.204;22.552;2022-09-20T18:06:28;13.40;83.80
42965;DHT22;28604;51.204;22.552;2022-09-20T18:08:57;13.40;83.80
42965;DHT22;28604;51.204;22.552;2022-09-20T18:11:37;13.40;83.60
42965;DHT22;28604;51.204;22.552;2022-09-20T18:14:05;13.40;83.50
42965;DHT22;28604;51.204;22.552;2022-09-20T18:16:33;13.40;83.40
42965;DHT22;28604;51.204;22.552;2022-09-20T18:19:00;13.30;84.00
42965;DHT22;28604;51.204;22.552;2022-09-20T18:21:28;13.30;84.30
42965;DHT22;28604;51.204;22.552;2022-09-20T18:23:55;13.30;86.30
42965;DHT22;28604;51.204;22.552;2022-09-20T18:26:27;13.20;85.90
42965;DHT22;28604;51.204;22.552;2022-09-20T18:31:36;13.10;86.00
42965;DHT22;28604;51.204;22.552;2022-09-20T18:34:08;13.10;86.00
42965;DHT22;28604;51.204;22.552;2022-09-20T18:36:37;13.00;85.50
42965;DHT22;28604;51.204;22.552;2022-09-20T18:39:05;13.00;86.20
42965;DHT22;28604;51.204;22.552;2022-09-20T18:41:33;13.00;85.90
42965;DHT22;28604;51.204;22.552;2022-09-20T18:44:01;12.90;86.00
42965;DHT22;28604;51.204;22.552;2022-09-20T18:46:29;12.80;86.80
42965;DHT22;28604;51.204;22.552;2022-09-20T18:48:58;12.80;86.00
42965;DHT22;28604;51.204;22.552;2022-09-20T18:51:30;12.80;85.10
42965;DHT22;28604;51.204;22.552;2022-09-20T18:53:57;12.80;84.90
42965;DHT22;28604;51.204;22.552;2022-09-20T18:56:26;12.80;84.80
42965;DHT22;28604;51.204;22.552;2022-09-20T18:58:55;12.80;84.60
42965;DHT22;28604;51.204;22.552;2022-09-20T19:15:37;12.60;84.90
42965;DHT22;28604;51.204;22.552;2022-09-20T19:21:12;12.50;84.60
42965;DHT22;28604;51.204;22.552;2022-09-20T19:26:26;12.50;86.50
42965;DHT22;28604;51.204;22.552;2022-09-20T19:28:56;12.50;87.50
42965;DHT22;28604;51.204;22.552;2022-09-20T19:31:32;12.50;87.20
42965;DHT22;28604;51.204;22.552;2022-09-20T19:34:02;12.50;88.80
42965;DHT22;28604;51.204;22.552;2022-09-20T19:39:09;12.40;89.40
42965;DHT22;28604;51.204;22.552;2022-09-20T19:41:52;12.40;89.80
42965;DHT22;28604;51.204;22.552;2022-09-20T19:49:46;12.40;90.30
42965;DHT22;28604;51.204;22.552;2022-09-20T19:52:13;12.30;90.30
42965;DHT22;28604;51.204;22.552;2022-09-20T19:54:40;12.30;90.40
42965;DHT22;28604;51.204;22.552;2022-09-20T19:57:21;12.30;90.10
42965;DHT22;28604;51.204;22.552;2022-09-20T19:59:49;12.20;90.00
42965;DHT22;28604;51.204;22.552;2022-09-20T20:02:16;12.20;89.80
42965;DHT22;28604;51.204;22.552;2022-09-20T20:04:43;12.20;89.40
42965;DHT22;28604;51.204;22.552;2022-09-20T20:07:24;12.20;89.70
42965;DHT22;28604;51.204;22.552;2022-09-20T20:13:05;12.10;89.20
42965;DHT22;28604;51.204;22.552;2022-09-20T20:16:02;12.10;88.10
42965;DHT22;28604;51.204;22.552;2022-09-20T20:21:06;12.00;88.00
42965;DHT22;28604;51.204;22.552;2022-09-20T20:23:48;12.00;89.00
42965;DHT22;28604;51.204;22.552;2022-09-20T20:26:23;11.90;90.20
42965;DHT22;28604;51.204;22.552;2022-09-20T20:28:50;11.90;89.10
42965;DHT22;28604;51.204;22.552;2022-09-20T20:31:20;11.90;88.70
42965;DHT22;28604;51.204;22.552;2022-09-20T20:33:47;11.80;88.80
42965;DHT22;28604;51.204;22.552;2022-09-20T20:36:15;11.80;89.00
42965;DHT22;28604;51.204;22.552;2022-09-20T20:38:42;11.80;89.20
42965;DHT22;28604;51.204;22.552;2022-09-20T20:41:16;11.80;88.90
42965;DHT22;28604;51.204;22.552;2022-09-20T20:43:44;11.70;89.60
42965;DHT22;28604;51.204;22.552;2022-09-20T20:46:15;11.70;89.20
42965;DHT22;28604;51.204;22.552;2022-09-20T20:48:44;11.70;88.90
42965;DHT22;28604;51.204;22.552;2022-09-20T20:51:14;11.70;89.00
42965;DHT22;28604;51.204;22.552;2022-09-20T20:53:49;11.70;88.70
42965;DHT22;28604;51.204;22.552;2022-09-20T20:56:21;11.70;88.60
42965;DHT22;28604;51.204;22.552;2022-09-20T20:58:48;11.60;88.80
42965;DHT22;28604;51.204;22.552;2022-09-20T21:03:41;11.60;88.40
42965;DHT22;28604;51.204;22.552;2022-09-20T21:06:09;11.60;88.20
42965;DHT22;28604;51.204;22.552;2022-09-20T21:08:37;11.60;88.80
42965;DHT22;28604;51.204;22.552;2022-09-20T21:11:07;11.60;89.30
42965;DHT22;28604;51.204;22.552;2022-09-20T21:13:33;11.60;89.20
42965;DHT22;28604;51.204;22.552;2022-09-20T21:16:10;11.60;89.70
42965;DHT22;28604;51.204;22.552;2022-09-20T21:18:39;11.60;89.90
42965;DHT22;28604;51.204;22.552;2022-09-20T21:21:33;11.60;89.60
42965;DHT22;28604;51.204;22.552;2022-09-20T21:24:02;11.60;89.80
42965;DHT22;28604;51.204;22.552;2022-09-20T21:26:30;11.60;89.40
42965;DHT22;28604;51.204;22.552;2022-09-20T21:29:00;11.60;89.20
42965;DHT22;28604;51.204;22.552;2022-09-20T21:31:29;11.60;88.70
42965;DHT22;28604;51.204;22.552;2022-09-20T21:33:56;11.60;88.80
42965;DHT22;28604;51.204;22.552;2022-09-20T21:36:25;11.60;88.60
42965;DHT22;28604;51.204;22.552;2022-09-20T21:38:51;11.60;88.80
42965;DHT22;28604;51.204;22.552;2022-09-20T21:41:28;11.50;89.80
42965;DHT22;28604;51.204;22.552;2022-09-20T21:43:56;11.60;89.30